createdAt,value
2022-09-03T17:15:47.312Z,44.18
2022-09-03T17:18:33.201Z,48.75
2022-09-03T17:21:26.799Z,53.59
2022-09-03T17:24:33.551Z,46.16
2022-09-03T17:27:21.980Z,50.25
2022-09-03T17:30:04.371Z,49.75
2022-09-03T17:33:04.516Z,50.62
2022-09-03T17:35:46.209Z,50.29
2022-09-03T17:38:24.081Z,51.05
2022-09-03T17:41:19.847Z,47.30
2022-09-03T17:43:54.063Z,51.01
2022-09-03T17:46:31.492Z,50.88
2022-09-03T17:49:02.756Z,51.98
2022-09-03T17:51:50.952Z,53.67
2022-09-03T17:54:23.655Z,56.46
2022-09-03T17:57:02.590Z,52.90
2022-09-03T17:59:37.375Z,54.79
2022-09-03T18:02:15.535Z,54.93
2022-09-03T18:04:47.251Z,52.76
2022-09-03T18:07:20.297Z,56.25
2022-09-03T18:09:59.620Z,54.95
2022-09-03T18:12:52.712Z,55.95
2022-09-03T18:15:49.060Z,57.71
2022-09-03T18:18:27.049Z,56.45
2022-09-03T18:21:24.368Z,55.47
2022-09-03T18:24:18.526Z,57.02
2022-09-03T18:27:14.053Z,59.41
2022-09-03T18:30:28.821Z,59.56
2022-09-03T18:33:15.303Z,59.57
2022-09-03T18:36:08.118Z,59.85
2022-09-03T18:38:55.460Z,61.45
2022-09-03T18:42:08.928Z,61.43
2022-09-03T18:45:21.415Z,61.63
2022-09-03T18:48:29.931Z,61.67
2022-09-03T18:51:34.266Z,62.46
2022-09-03T18:54:50.600Z,62.49
2022-09-03T18:57:41.846Z,61.86
2022-09-03T19:00:30.122Z,62.46
2022-09-03T19:03:18.296Z,63.31
2022-09-03T19:06:34.599Z,65.14
2022-09-03T19:09:53.527Z,66.28
2022-09-03T19:13:13.493Z,68.37
2022-09-03T19:16:06.194Z,68.14
2022-09-03T19:19:15.139Z,68.62
2022-09-03T19:22:06.579Z,69.22
2022-09-03T19:24:51.958Z,70.00
2022-09-03T19:27:58.894Z,71.05
2022-09-03T19:30:50.396Z,71.37
2022-09-03T19:33:48.132Z,71.44
2022-09-03T19:36:45.749Z,71.20
2022-09-03T19:39:49.792Z,72.37
2022-09-03T19:42:58.443Z,73.16
2022-09-03T19:45:59.125Z,73.67
2022-09-03T19:48:50.578Z,74.66
2022-09-03T19:51:52.941Z,73.63
2022-09-03T19:54:42.346Z,73.38
2022-09-03T19:57:30.225Z,76.02
2022-09-03T20:00:17.138Z,76.73
2022-09-03T20:03:07.735Z,77.78
2022-09-03T20:05:54.278Z,76.19
2022-09-03T20:08:40.169Z,76.40
2022-09-03T20:11:11.923Z,75.00
2022-09-03T20:13:58.227Z,74.42
2022-09-03T20:16:30.958Z,76.53
2022-09-03T20:19:22.298Z,74.02
2022-09-03T20:22:11.517Z,75.91
2022-09-03T20:25:07.443Z,74.61
2022-09-03T20:27:54.419Z,76.71
2022-09-03T20:30:23.172Z,72.03
2022-09-03T20:32:58.538Z,70.94
2022-09-03T20:35:37.364Z,75.18
2022-09-03T20:38:25.762Z,68.99
2022-09-03T20:41:19.498Z,71.95
2022-09-03T20:44:16.734Z,66.84
2022-09-03T20:47:12.388Z,67.77
2022-09-03T20:50:18.697Z,66.19
2022-09-03T20:52:48.390Z,64.33
2022-09-03T20:55:28.370Z,67.29
2022-09-03T20:58:04.523Z,67.68
2022-09-03T21:00:49.210Z,63.16
2022-09-03T21:03:19.865Z,67.40
2022-09-03T21:06:13.989Z,66.52
2022-09-03T21:08:46.591Z,62.93
2022-09-03T21:11:18.453Z,65.73
2022-09-03T21:14:16.219Z,68.13
2022-09-03T21:17:18.548Z,67.02
2022-09-03T21:19:49.461Z,65.54
2022-09-03T21:22:31.637Z,61.50
2022-09-03T21:25:01.408Z,66.88
2022-09-03T21:27:34.146Z,65.76
2022-09-03T21:30:04.844Z,64.06
2022-09-03T21:32:51.611Z,61.58
2022-09-03T21:35:27.332Z,62.64
2022-09-03T21:38:29.439Z,62.88
2022-09-03T21:41:24.091Z,60.61
2022-09-03T21:43:57.514Z,62.27
2022-09-03T21:46:28.353Z,60.06
2022-09-03T21:48:59.704Z,60.30
2022-09-03T21:51:31.871Z,61.67
2022-09-03T21:54:07.503Z,61.08
2022-09-03T21:57:06.564Z,59.43
2022-09-03T21:59:41.545Z,58.50
2022-09-03T22:02:16.976Z,58.56
2022-09-03T22:04:43.783Z,59.38
2022-09-03T22:07:32.386Z,58.53
2022-09-03T22:10:18.024Z,59.88
2022-09-03T22:13:09.191Z,59.01
2022-09-03T22:15:38.247Z,59.26
2022-09-03T22:18:23.724Z,60.67
2022-09-03T22:21:17.288Z,61.55
2022-09-03T22:23:55.456Z,58.37
2022-09-03T22:26:28.213Z,58.78
2022-09-03T22:29:03.294Z,59.50
2022-09-03T22:31:43.006Z,57.01
2022-09-03T22:34:24.857Z,56.83
2022-09-03T22:36:57.860Z,61.34
2022-09-03T22:39:40.064Z,59.29
2022-09-03T22:42:28.957Z,57.78
2022-09-03T22:45:21.881Z,58.10
2022-09-03T22:47:53.092Z,58.08
2022-09-03T22:50:24.106Z,56.88
2022-09-03T22:52:59.758Z,56.96
2022-09-03T22:55:27.075Z,56.37
2022-09-03T22:58:07.291Z,55.97
2022-09-03T23:00:41.372Z,56.64
2022-09-03T23:03:14.871Z,57.93
2022-09-03T23:05:51.623Z,57.91
2022-09-03T23:08:23.411Z,56.11
2022-09-03T23:11:25.579Z,56.97
2022-09-03T23:14:03.658Z,57.29
2022-09-03T23:16:40.968Z,57.03
2022-09-03T23:21:51.105Z,57.14
2022-09-03T23:24:28.195Z,60.52
2022-09-03T23:26:55.136Z,57.84
2022-09-03T23:29:26.287Z,57.98
2022-09-03T23:31:57.082Z,58.42
2022-09-03T23:34:23.839Z,58.21
2022-09-03T23:40:18.107Z,57.86
2022-09-03T23:43:16.110Z,57.88
2022-09-03T23:45:53.289Z,57.43
2022-09-03T23:48:33.985Z,56.55
2022-09-03T23:51:10.497Z,56.50
2022-09-03T23:54:05.429Z,59.10
2022-09-03T23:57:12.484Z,58.39
2022-09-03T23:59:59.390Z,57.11
